Main page
METAR-TAF:

METAR-TAF

Airports :

Bari Karol Wojtyła Airport

Bari, Italy

latitude: 41-08N, longitude: 016-47E, elevation: 34 m

Current weather observation

The report was made 38 minutes ago, at 21:50 UTC
Wind 5 kt from the West/Southwest, varying between Southwest and West
Temperature 23°C
Humidity 89%
Pressure 1011 hPa
Visibility 10 km or more
no clouds below 1500 m and no cumulonimbus

METAR: LIBD 242150Z 25005KT 220V280 CAVOK 23/21 Q1011

Time: 00:28 (22:28 UTC)

Forecast

The report was made 5 hours and 28 minutes ago, at 17:00 UTC
Forecast valid from 24 at 18 UTC to 25 at 18 UTC
Wind 10 kt from the East
Visibility 10 km or more
Few clouds at a height of 3500 ft
Becoming
from 24 at 19 UTC to 24 at 21 UTC
Wind 7 kt from the West
Becoming
from 25 at 06 UTC to 25 at 08 UTC
Wind 10 kt from the Southwest
Becoming
from 25 at 15 UTC to 25 at 17 UTC
Wind 10 kt from the East/Southeast

TAF: LIBD 241700Z 2418/2518 10010KT 9999 FEW035 BECMG 2419/2421 28007KT BECMG 2506/2508 22010KT BECMG 2515/2517 11010KT

Weather observations and forecasts of more than 4000 airports (METAR and TAF reports).

The available stations are represented by yellow and red dots on the map.

Hover mouse over dot to see the name of the station.

Then click to see weather observations and forecasts.

To change the map : click on the green buttons with a black cross to zoom in, on the green button with a dash to zoom out, or on the green arrows for adjacent maps.


METAR-TAF: